Flight Track Log - Related Links

Times and Time Zones

All times are in EDT time to prevent confusion due to time zone crossing. See the SWA896 flight status page for this flight to view local times or setup timezone preferences in your user account.

Time Position Orientation Groundspeed Altitude Reporting Facility
EDT Latitude Longitude Course Direction KTS MPH feet Rate Location/Type
Thu 01:56:18 PM 36.0775 -115.1144 92° East 170 196 3,300  Level Los Angeles Center
Thu 01:57:13 PM 36.0758 -115.0486 92° East 217 250 4,900 2,177 Climbing Los Angeles Center
Thu 01:58:11 PM 36.0703 -114.9636 95° East 249 287 7,400 2,350 Climbing Los Angeles Center
Thu 01:59:13 PM 36.0150 -114.9242 150° Southeast 291 335 9,600 2,762 Climbing Los Angeles Center
Thu 02:00:17 PM 35.9256 -114.9522 194° South 311 358 13,200 2,544 Climbing Los Angeles Center
Thu 02:01:18 PM 35.9233 -115.0631 269° West 324 373 14,900 2,000 Climbing Los Angeles Center
Thu 02:02:20 PM 35.9178 -115.1889 267° West 355 409 17,300 2,226 Climbing Los Angeles Center
Thu 02:03:22 PM 35.9150 -115.3242 269° West 381 438 19,500 2,274 Climbing Los Angeles Center
Thu 02:04:24 PM 35.9117 -115.4628 268° West 397 457 22,000 2,371 Climbing Los Angeles Center
Thu 02:05:26 PM 35.9061 -115.6300 268° West 402 463 24,400 1,890 Climbing Los Angeles Center
Thu 02:06:31 PM 35.9019 -115.7744 268° West 413 475 26,000 1,306 Climbing Los Angeles Center
Thu 02:07:30 PM 35.8978 -115.9097 268° West 431 496 27,100 1,339 Climbing Los Angeles Center
Thu 02:08:32 PM 35.9511 -116.0344 298° West 423 487 28,700 1,645 Climbing Los Angeles Center
Thu 02:09:34 PM 36.0325 -116.1267 318° Northwest 420 483 30,500 1,920 Climbing Los Angeles Center
Thu 02:10:37 PM 36.1378 -116.2475 317° Northwest 414 476 32,700 1,680 Climbing Los Angeles Center
Thu 02:11:39 PM 36.2197 -116.3433 317° Northwest 408 470 34,000 629 Climbing Los Angeles Center
Thu 02:12:41 PM 36.3031 -116.4400 317° Northwest 410 472 34,000  Level Los Angeles Center
Thu 02:13:43 PM 36.3853 -116.5353 317° Northwest 408 470 34,000  Level Los Angeles Center
Thu 02:14:45 PM 36.4661 -116.6308 316° Northwest 405 466 34,000  Level Los Angeles Center
Thu 02:15:59 PM 36.5628 -116.7436 317° Northwest 405 466 34,000  Level Los Angeles Center
Thu 02:17:02 PM 36.6783 -116.8336 328° Northwest 407 468 34,000  Level Los Angeles Center
Thu 02:18:16 PM 36.7750 -116.9072 329° Northwest 405 466 34,000  Level Los Angeles Center
Thu 02:19:18 PM 36.8892 -116.9958 328° Northwest 404 465 34,000  Level Los Angeles Center
Thu 02:20:20 PM 37.0039 -117.0872 328° Northwest 406 467 34,000  Level Los Angeles Center
Thu 02:21:24 PM 37.0983 -117.1569 330° Northwest 401 461 34,000  Level Oakland Center
Thu 02:22:26 PM 37.1939 -117.2306 328° Northwest 401 461 34,000  Level Oakland Center
Thu 02:23:27 PM 37.2872 -117.3036 328° Northwest 396 456 34,000  Level Oakland Center
Thu 02:24:29 PM 37.3572 -117.4108 309° West 402 463 34,000  Level Oakland Center
Thu 02:25:30 PM 37.3861 -117.5531 284° West 414 476 34,000  Level Oakland Center
Thu 02:26:32 PM 37.4094 -117.6969 282° West 416 479 34,000  Level Oakland Center
Thu 02:27:33 PM 37.4319 -117.8394 281° West 415 478 34,000  Level Oakland Center
Thu 02:28:35 PM 37.4589 -118.0114 281° West 414 476 34,000  Level Oakland Center
Thu 02:29:36 PM 37.4811 -118.1556 281° West 417 480 34,000  Level Oakland Center
Thu 02:30:38 PM 37.5039 -118.3008 281° West 421 484 34,000  Level Oakland Center
Thu 02:31:39 PM 37.5264 -118.4456 281° West 420 483 34,000  Level Oakland Center
Thu 02:32:40 PM 37.5467 -118.5886 280° West 415 478 34,000 -98 Level Oakland Center
Thu 02:33:42 PM 37.5686 -118.7331 281° West 418 481 33,800 -683 Descending Oakland Center
Thu 02:34:43 PM 37.5917 -118.8875 281° West 410 472 32,600 -1,073 Descending Oakland Center
Thu 02:35:45 PM 37.6108 -119.0178 281° West 403 464 31,600 -976 Descending Oakland Center
Thu 02:36:46 PM 37.6308 -119.1525 281° West 393 452 30,600 -780 Descending Oakland Center
Thu 02:37:48 PM 37.6500 -119.2856 280° West 387 445 30,000 -634 Descending Oakland Center
Thu 02:38:49 PM 37.6694 -119.4203 280° West 388 447 29,300 -927 Descending Oakland Center
Thu 02:39:51 PM 37.6936 -119.5867 280° West 400 460 28,100 -1,073 Descending Oakland Center
Thu 02:40:52 PM 37.7136 -119.7219 281° West 394 453 27,100 -976 Descending Oakland Center
Thu 02:41:54 PM 37.7322 -119.8556 280° West 388 447 26,100 -976 Descending Oakland Center
Thu 02:42:55 PM 37.7508 -119.9875 280° West 386 444 25,100 -984 Descending Oakland Center
Thu 02:43:56 PM 37.7692 -120.1172 280° West 377 434 24,100 -976 Descending Oakland Center
Thu 02:44:58 PM 37.7881 -120.2475 280° West 377 434 23,100 -976 Descending Oakland Center
Thu 02:45:59 PM 37.8039 -120.3781 279° West 375 432 22,100 -1,024 Descending Oakland Center
Thu 02:47:01 PM 37.8225 -120.5042 281° West 369 425 21,000 -1,024 Descending Oakland Center
Thu 02:48:02 PM 37.8675 -120.6139 297° West 357 411 20,000 -1,033 Descending Oakland Center
Thu 02:49:03 PM 37.9217 -120.7144 304° West 347 399 18,900 -1,512 Descending Oakland Center
Thu 02:50:05 PM 37.9844 -120.8306 304° West 334 384 16,900 -1,902 Descending Oakland Center
Thu 02:51:06 PM 38.0339 -120.9253 304° West 325 374 15,000 -1,854 Descending Oakland Center
Thu 02:52:08 PM 38.0853 -121.0186 305° West 322 371 13,100 -1,756 Descending Oakland Center
Thu 02:53:09 PM 38.1414 -121.1014 311° West 311 358 11,400 -1,538 Descending Oakland Center
Thu 02:54:05 PM 38.2000 -121.1833 312° West 297 342 10,100 -1,086 Descending Northern Cal TRACON
Thu 02:55:05 PM 38.2500 -121.2500 314° West 272 313 9,300 -900 Descending Northern Cal TRACON
Thu 02:56:05 PM 38.2833 -121.3167 303° West 262 302 8,300 -1,150 Descending Northern Cal TRACON
Thu 02:57:05 PM 38.3333 -121.3833 314° West 257 296 7,000 -1,240 Descending Northern Cal TRACON
Thu 02:58:06 PM 38.3833 -121.4500 314° West 252 290 5,800 -1,190 Descending Northern Cal TRACON
Thu 02:59:06 PM 38.4333 -121.5167 314° West 249 287 4,600 -950 Descending Northern Cal TRACON
Thu 03:00:06 PM 38.4833 -121.5833 314° West 232 267 3,900 -800 Descending Northern Cal TRACON
Thu 03:01:06 PM 38.5333 -121.6000 345° North 212 244 3,000 -1,000 Descending Northern Cal TRACON
Thu 03:02:06 PM 38.5833 -121.6000 360° North 194 223 1,900 -1,000 Descending Northern Cal TRACON
Thu 03:03:06 PM 38.6333 -121.6000 360° North 156 180 1,000 -850 Descending Northern Cal TRACON
Thu 03:04:06 PM 38.6667 -121.6000 360° North 142 163 200 -800 Descending Northern Cal TRACON
Thu 03:06:00 PM 38.6833 -121.5833 46° Northeast  Level FlightAware Approximate
Thu 03:13:00 PM 38.6954 -121.5908 46° Northeast  Level Estimated
Thu 03:14:00 PM 38.6954 -121.5908 46° Northeast  Level Estimated

Login

Don't have an account? Register now (free) for customized features, flight alerts, and more!